sensor_id;sensor_type;location;lat;lon;timestamp;P1;durP1;ratioP1;P2;durP2;ratioP2
12846;SDS011;6492;48.128;8.320;2023-02-01T00:01:55;4.00;;;3.43;;
12846;SDS011;6492;48.128;8.320;2023-02-01T00:05:57;3.90;;;3.50;;
12846;SDS011;6492;48.128;8.320;2023-02-01T00:10:00;4.60;;;3.20;;
12846;SDS011;6492;48.128;8.320;2023-02-01T00:14:04;5.63;;;3.50;;
12846;SDS011;6492;48.128;8.320;2023-02-01T00:18:08;3.70;;;3.00;;
12846;SDS011;6492;48.128;8.320;2023-02-01T00:22:09;3.87;;;3.43;;
12846;SDS011;6492;48.128;8.320;2023-02-01T00:26:12;5.40;;;4.00;;
12846;SDS011;6492;48.128;8.320;2023-02-01T00:30:18;4.87;;;4.07;;
12846;SDS011;6492;48.128;8.320;2023-02-01T00:34:20;4.23;;;3.60;;
12846;SDS011;6492;48.128;8.320;2023-02-01T00:38:22;5.77;;;3.87;;
12846;SDS011;6492;48.128;8.320;2023-02-01T00:42:23;5.70;;;4.57;;
12846;SDS011;6492;48.128;8.320;2023-02-01T00:46:27;4.97;;;3.87;;
12846;SDS011;6492;48.128;8.320;2023-02-01T00:50:29;4.57;;;4.07;;
12846;SDS011;6492;48.128;8.320;2023-02-01T00:54:30;5.83;;;4.03;;
12846;SDS011;6492;48.128;8.320;2023-02-01T00:58:33;4.57;;;3.63;;
12846;SDS011;6492;48.128;8.320;2023-02-01T01:02:37;5.40;;;3.70;;
12846;SDS011;6492;48.128;8.320;2023-02-01T01:06:38;4.03;;;3.53;;
12846;SDS011;6492;48.128;8.320;2023-02-01T01:10:40;4.43;;;3.37;;
12846;SDS011;6492;48.128;8.320;2023-02-01T01:14:43;3.80;;;3.27;;
12846;SDS011;6492;48.128;8.320;2023-02-01T01:18:46;3.40;;;3.03;;
12846;SDS011;6492;48.128;8.320;2023-02-01T01:22:49;3.17;;;2.87;;
12846;SDS011;6492;48.128;8.320;2023-02-01T01:26:50;3.87;;;3.10;;
12846;SDS011;6492;48.128;8.320;2023-02-01T01:30:53;4.87;;;3.43;;
12846;SDS011;6492;48.128;8.320;2023-02-01T01:39:11;4.23;;;3.27;;
12846;SDS011;6492;48.128;8.320;2023-02-01T01:43:13;4.53;;;3.20;;
12846;SDS011;6492;48.128;8.320;2023-02-01T01:47:16;5.60;;;3.63;;
12846;SDS011;6492;48.128;8.320;2023-02-01T01:51:19;4.27;;;3.87;;
12846;SDS011;6492;48.128;8.320;2023-02-01T01:55:23;5.00;;;3.57;;
12846;SDS011;6492;48.128;8.320;2023-02-01T01:59:27;4.47;;;3.30;;
12846;SDS011;6492;48.128;8.320;2023-02-01T02:03:32;4.40;;;3.47;;
12846;SDS011;6492;48.128;8.320;2023-02-01T02:07:39;6.07;;;3.43;;
12846;SDS011;6492;48.128;8.320;2023-02-01T02:11:43;5.67;;;3.73;;
12846;SDS011;6492;48.128;8.320;2023-02-01T02:15:45;3.70;;;3.30;;
12846;SDS011;6492;48.128;8.320;2023-02-01T02:20:18;4.90;;;3.73;;
12846;SDS011;6492;48.128;8.320;2023-02-01T02:24:46;4.60;;;3.07;;
12846;SDS011;6492;48.128;8.320;2023-02-01T02:33:53;5.03;;;3.43;;
12846;SDS011;6492;48.128;8.320;2023-02-01T02:38:10;3.13;;;2.80;;
12846;SDS011;6492;48.128;8.320;2023-02-01T02:42:17;3.90;;;3.00;;
12846;SDS011;6492;48.128;8.320;2023-02-01T02:46:46;3.97;;;2.87;;
12846;SDS011;6492;48.128;8.320;2023-02-01T02:51:11;3.30;;;2.80;;
12846;SDS011;6492;48.128;8.320;2023-02-01T02:55:30;3.27;;;2.60;;
12846;SDS011;6492;48.128;8.320;2023-02-01T02:59:36;4.83;;;2.47;;
12846;SDS011;6492;48.128;8.320;2023-02-01T03:03:58;2.47;;;2.17;;
12846;SDS011;6492;48.128;8.320;2023-02-01T03:08:13;3.47;;;2.47;;
12846;SDS011;6492;48.128;8.320;2023-02-01T03:12:16;2.80;;;2.30;;
12846;SDS011;6492;48.128;8.320;2023-02-01T03:16:39;2.97;;;2.17;;
12846;SDS011;6492;48.128;8.320;2023-02-01T03:20:46;2.20;;;2.00;;
12846;SDS011;6492;48.128;8.320;2023-02-01T03:24:59;2.30;;;1.80;;
12846;SDS011;6492;48.128;8.320;2023-02-01T03:29:05;3.30;;;1.80;;
12846;SDS011;6492;48.128;8.320;2023-02-01T03:33:13;2.27;;;1.93;;
12846;SDS011;6492;48.128;8.320;2023-02-01T03:37:23;2.07;;;1.87;;
12846;SDS011;6492;48.128;8.320;2023-02-01T03:41:30;1.87;;;1.53;;
12846;SDS011;6492;48.128;8.320;2023-02-01T03:45:38;2.00;;;1.73;;
12846;SDS011;6492;48.128;8.320;2023-02-01T03:49:44;1.77;;;1.63;;
12846;SDS011;6492;48.128;8.320;2023-02-01T03:53:50;2.40;;;1.70;;
12846;SDS011;6492;48.128;8.320;2023-02-01T03:57:57;1.83;;;1.67;;
12846;SDS011;6492;48.128;8.320;2023-02-01T04:02:03;1.90;;;1.60;;
12846;SDS011;6492;48.128;8.320;2023-02-01T04:06:05;1.47;;;1.27;;
12846;SDS011;6492;48.128;8.320;2023-02-01T04:10:07;2.20;;;1.70;;
12846;SDS011;6492;48.128;8.320;2023-02-01T04:14:11;1.87;;;1.53;;
12846;SDS011;6492;48.128;8.320;2023-02-01T04:18:13;1.50;;;1.40;;
12846;SDS011;6492;48.128;8.320;2023-02-01T04:22:15;2.57;;;1.53;;
12846;SDS011;6492;48.128;8.320;2023-02-01T04:26:17;2.40;;;1.50;;
12846;SDS011;6492;48.128;8.320;2023-02-01T04:30:20;1.53;;;1.30;;
12846;SDS011;6492;48.128;8.320;2023-02-01T04:34:23;1.93;;;1.70;;
12846;SDS011;6492;48.128;8.320;2023-02-01T04:38:26;3.30;;;1.87;;
12846;SDS011;6492;48.128;8.320;2023-02-01T04:42:29;1.67;;;1.50;;
12846;SDS011;6492;48.128;8.320;2023-02-01T04:46:32;1.47;;;1.37;;
12846;SDS011;6492;48.128;8.320;2023-02-01T04:50:34;1.77;;;1.60;;
12846;SDS011;6492;48.128;8.320;2023-02-01T04:54:35;1.70;;;1.60;;
12846;SDS011;6492;48.128;8.320;2023-02-01T04:58:37;1.50;;;1.40;;
12846;SDS011;6492;48.128;8.320;2023-02-01T05:02:40;2.77;;;1.70;;
12846;SDS011;6492;48.128;8.320;2023-02-01T05:06:42;1.87;;;1.70;;
12846;SDS011;6492;48.128;8.320;2023-02-01T05:10:44;2.80;;;1.70;;
12846;SDS011;6492;48.128;8.320;2023-02-01T05:14:46;2.63;;;1.60;;
12846;SDS011;6492;48.128;8.320;2023-02-01T05:18:50;2.57;;;1.77;;
12846;SDS011;6492;48.128;8.320;2023-02-01T05:27:13;2.27;;;1.90;;
12846;SDS011;6492;48.128;8.320;2023-02-01T05:31:15;2.87;;;2.07;;
12846;SDS011;6492;48.128;8.320;2023-02-01T05:35:19;2.20;;;2.00;;
12846;SDS011;6492;48.128;8.320;2023-02-01T05:39:20;2.03;;;1.80;;
12846;SDS011;6492;48.128;8.320;2023-02-01T05:43:22;2.97;;;2.00;;
12846;SDS011;6492;48.128;8.320;2023-02-01T05:47:41;1.93;;;1.73;;
12846;SDS011;6492;48.128;8.320;2023-02-01T05:51:44;2.23;;;1.70;;
12846;SDS011;6492;48.128;8.320;2023-02-01T05:55:46;1.97;;;1.60;;
12846;SDS011;6492;48.128;8.320;2023-02-01T05:59:48;1.80;;;1.50;;
12846;SDS011;6492;48.128;8.320;2023-02-01T06:03:50;2.00;;;1.80;;
12846;SDS011;6492;48.128;8.320;2023-02-01T06:07:53;1.90;;;1.67;;
12846;SDS011;6492;48.128;8.320;2023-02-01T06:11:54;1.67;;;1.50;;
12846;SDS011;6492;48.128;8.320;2023-02-01T06:15:56;1.60;;;1.50;;
12846;SDS011;6492;48.128;8.320;2023-02-01T06:19:58;1.90;;;1.60;;
12846;SDS011;6492;48.128;8.320;2023-02-01T06:24:01;1.90;;;1.47;;
12846;SDS011;6492;48.128;8.320;2023-02-01T06:28:03;1.77;;;1.63;;
12846;SDS011;6492;48.128;8.320;2023-02-01T06:32:06;1.60;;;1.30;;
12846;SDS011;6492;48.128;8.320;2023-02-01T06:36:09;2.03;;;1.83;;
12846;SDS011;6492;48.128;8.320;2023-02-01T06:40:13;1.60;;;1.50;;
12846;SDS011;6492;48.128;8.320;2023-02-01T06:44:15;2.17;;;1.93;;
12846;SDS011;6492;48.128;8.320;2023-02-01T06:48:17;1.80;;;1.70;;
12846;SDS011;6492;48.128;8.320;2023-02-01T06:52:19;1.60;;;1.50;;
12846;SDS011;6492;48.128;8.320;2023-02-01T06:56:22;1.60;;;1.40;;
12846;SDS011;6492;48.128;8.320;2023-02-01T07:00:25;1.90;;;1.53;;
12846;SDS011;6492;48.128;8.320;2023-02-01T07:04:26;1.20;;;1.10;;
12846;SDS011;6492;48.128;8.320;2023-02-01T07:08:28;2.07;;;1.07;;
12846;SDS011;6492;48.128;8.320;2023-02-01T07:12:33;1.70;;;1.43;;
12846;SDS011;6492;48.128;8.320;2023-02-01T07:16:35;1.23;;;1.10;;
12846;SDS011;6492;48.128;8.320;2023-02-01T07:20:37;1.80;;;1.40;;
12846;SDS011;6492;48.128;8.320;2023-02-01T07:24:39;1.37;;;1.27;;
12846;SDS011;6492;48.128;8.320;2023-02-01T07:28:42;2.00;;;1.40;;
12846;SDS011;6492;48.128;8.320;2023-02-01T07:32:44;2.00;;;1.30;;
12846;SDS011;6492;48.128;8.320;2023-02-01T07:36:46;1.87;;;1.60;;
12846;SDS011;6492;48.128;8.320;2023-02-01T07:40:48;2.20;;;1.67;;
12846;SDS011;6492;48.128;8.320;2023-02-01T07:44:51;3.47;;;1.73;;
12846;SDS011;6492;48.128;8.320;2023-02-01T07:48:52;2.63;;;2.30;;
12846;SDS011;6492;48.128;8.320;2023-02-01T07:52:54;1.83;;;1.50;;
12846;SDS011;6492;48.128;8.320;2023-02-01T07:56:56;1.77;;;1.60;;
12846;SDS011;6492;48.128;8.320;2023-02-01T08:00:59;2.57;;;1.97;;
12846;SDS011;6492;48.128;8.320;2023-02-01T08:05:18;2.43;;;1.80;;
12846;SDS011;6492;48.128;8.320;2023-02-01T08:09:20;4.77;;;2.00;;
12846;SDS011;6492;48.128;8.320;2023-02-01T08:13:22;4.03;;;2.60;;
12846;SDS011;6492;48.128;8.320;2023-02-01T08:17:25;2.73;;;1.80;;
12846;SDS011;6492;48.128;8.320;2023-02-01T08:21:28;2.83;;;1.50;;
12846;SDS011;6492;48.128;8.320;2023-02-01T08:25:36;3.00;;;1.60;;
12846;SDS011;6492;48.128;8.320;2023-02-01T08:29:38;3.17;;;1.93;;
12846;SDS011;6492;48.128;8.320;2023-02-01T08:33:42;3.83;;;1.80;;
12846;SDS011;6492;48.128;8.320;2023-02-01T08:37:45;4.77;;;2.20;;
12846;SDS011;6492;48.128;8.320;2023-02-01T08:41:46;3.73;;;2.03;;
12846;SDS011;6492;48.128;8.320;2023-02-01T08:46:08;5.70;;;2.80;;
12846;SDS011;6492;48.128;8.320;2023-02-01T08:50:12;4.10;;;3.00;;
12846;SDS011;6492;48.128;8.320;2023-02-01T08:54:14;4.63;;;2.73;;
12846;SDS011;6492;48.128;8.320;2023-02-01T08:58:16;5.23;;;3.13;;
12846;SDS011;6492;48.128;8.320;2023-02-01T09:02:19;6.20;;;3.00;;
12846;SDS011;6492;48.128;8.320;2023-02-01T09:06:22;4.17;;;2.70;;
12846;SDS011;6492;48.128;8.320;2023-02-01T09:10:24;5.63;;;3.40;;
12846;SDS011;6492;48.128;8.320;2023-02-01T09:14:26;5.13;;;3.00;;
12846;SDS011;6492;48.128;8.320;2023-02-01T09:18:28;4.30;;;3.07;;
12846;SDS011;6492;48.128;8.320;2023-02-01T09:22:31;4.33;;;3.23;;
12846;SDS011;6492;48.128;8.320;2023-02-01T09:26:33;4.17;;;2.53;;
12846;SDS011;6492;48.128;8.320;2023-02-01T09:30:35;4.77;;;2.70;;
12846;SDS011;6492;48.128;8.320;2023-02-01T09:34:37;4.10;;;2.73;;
12846;SDS011;6492;48.128;8.320;2023-02-01T09:38:40;4.97;;;3.20;;
12846;SDS011;6492;48.128;8.320;2023-02-01T09:47:16;4.90;;;2.93;;
12846;SDS011;6492;48.128;8.320;2023-02-01T09:51:21;4.17;;;2.63;;
12846;SDS011;6492;48.128;8.320;2023-02-01T09:55:30;3.43;;;2.30;;
12846;SDS011;6492;48.128;8.320;2023-02-01T09:59:39;5.77;;;3.17;;
12846;SDS011;6492;48.128;8.320;2023-02-01T10:03:43;8.63;;;3.90;;
12846;SDS011;6492;48.128;8.320;2023-02-01T10:07:47;6.47;;;3.33;;
12846;SDS011;6492;48.128;8.320;2023-02-01T10:12:00;7.33;;;4.17;;
12846;SDS011;6492;48.128;8.320;2023-02-01T10:16:21;16.10;;;7.97;;
12846;SDS011;6492;48.128;8.320;2023-02-01T10:20:36;5.47;;;3.67;;
12846;SDS011;6492;48.128;8.320;2023-02-01T10:24:53;5.30;;;2.53;;
12846;SDS011;6492;48.128;8.320;2023-02-01T10:29:10;20.27;;;9.30;;
12846;SDS011;6492;48.128;8.320;2023-02-01T10:33:18;11.17;;;5.67;;
12846;SDS011;6492;48.128;8.320;2023-02-01T10:37:24;11.87;;;5.67;;
12846;SDS011;6492;48.128;8.320;2023-02-01T10:41:30;12.77;;;6.17;;
12846;SDS011;6492;48.128;8.320;2023-02-01T10:45:35;6.00;;;3.43;;
12846;SDS011;6492;48.128;8.320;2023-02-01T10:49:41;9.87;;;6.00;;
12846;SDS011;6492;48.128;8.320;2023-02-01T10:53:49;4.50;;;2.93;;
12846;SDS011;6492;48.128;8.320;2023-02-01T10:57:57;3.90;;;3.20;;
12846;SDS011;6492;48.128;8.320;2023-02-01T11:02:05;5.83;;;3.97;;
12846;SDS011;6492;48.128;8.320;2023-02-01T11:06:25;2.47;;;2.27;;
12846;SDS011;6492;48.128;8.320;2023-02-01T11:10:36;4.00;;;2.70;;
12846;SDS011;6492;48.128;8.320;2023-02-01T11:14:40;3.23;;;2.93;;
12846;SDS011;6492;48.128;8.320;2023-02-01T11:18:43;4.53;;;3.03;;
12846;SDS011;6492;48.128;8.320;2023-02-01T11:22:46;3.53;;;2.63;;
12846;SDS011;6492;48.128;8.320;2023-02-01T11:26:49;4.63;;;2.90;;
12846;SDS011;6492;48.128;8.320;2023-02-01T11:30:53;3.17;;;2.87;;
12846;SDS011;6492;48.128;8.320;2023-02-01T11:34:59;4.63;;;2.60;;
12846;SDS011;6492;48.128;8.320;2023-02-01T11:39:15;3.20;;;2.60;;
12846;SDS011;6492;48.128;8.320;2023-02-01T11:43:23;2.60;;;2.03;;
12846;SDS011;6492;48.128;8.320;2023-02-01T11:47:26;2.70;;;1.80;;
12846;SDS011;6492;48.128;8.320;2023-02-01T11:51:35;3.43;;;1.80;;
12846;SDS011;6492;48.128;8.320;2023-02-01T11:55:48;4.17;;;2.30;;
12846;SDS011;6492;48.128;8.320;2023-02-01T12:00:07;4.67;;;2.53;;
12846;SDS011;6492;48.128;8.320;2023-02-01T12:04:35;5.07;;;2.33;;
12846;SDS011;6492;48.128;8.320;2023-02-01T12:09:08;5.83;;;2.90;;
12846;SDS011;6492;48.128;8.320;2023-02-01T12:13:21;7.83;;;3.03;;
12846;SDS011;6492;48.128;8.320;2023-02-01T12:17:44;7.37;;;2.93;;
12846;SDS011;6492;48.128;8.320;2023-02-01T12:21:57;4.03;;;2.80;;
12846;SDS011;6492;48.128;8.320;2023-02-01T12:26:11;8.17;;;2.90;;
12846;SDS011;6492;48.128;8.320;2023-02-01T12:30:58;6.70;;;3.53;;
12846;SDS011;6492;48.128;8.320;2023-02-01T12:35:21;6.97;;;2.80;;
12846;SDS011;6492;48.128;8.320;2023-02-01T12:39:38;7.57;;;3.20;;
12846;SDS011;6492;48.128;8.320;2023-02-01T12:43:48;7.87;;;3.23;;
12846;SDS011;6492;48.128;8.320;2023-02-01T12:47:54;10.40;;;3.40;;
12846;SDS011;6492;48.128;8.320;2023-02-01T12:52:01;6.80;;;3.60;;
12846;SDS011;6492;48.128;8.320;2023-02-01T12:56:08;5.80;;;3.20;;
12846;SDS011;6492;48.128;8.320;2023-02-01T13:00:18;8.80;;;3.30;;
12846;SDS011;6492;48.128;8.320;2023-02-01T13:04:30;8.47;;;3.20;;
12846;SDS011;6492;48.128;8.320;2023-02-01T13:08:37;5.10;;;2.80;;
12846;SDS011;6492;48.128;8.320;2023-02-01T13:12:44;9.23;;;3.47;;
12846;SDS011;6492;48.128;8.320;2023-02-01T13:16:56;7.27;;;3.13;;
12846;SDS011;6492;48.128;8.320;2023-02-01T13:21:02;7.80;;;3.30;;
12846;SDS011;6492;48.128;8.320;2023-02-01T13:25:11;7.60;;;3.23;;
12846;SDS011;6492;48.128;8.320;2023-02-01T13:29:14;7.83;;;3.97;;
12846;SDS011;6492;48.128;8.320;2023-02-01T13:33:27;8.83;;;3.33;;
12846;SDS011;6492;48.128;8.320;2023-02-01T13:38:01;9.13;;;3.67;;
12846;SDS011;6492;48.128;8.320;2023-02-01T13:42:20;8.40;;;4.60;;
12846;SDS011;6492;48.128;8.320;2023-02-01T13:46:24;8.67;;;3.63;;
12846;SDS011;6492;48.128;8.320;2023-02-01T13:50:29;7.00;;;3.60;;
12846;SDS011;6492;48.128;8.320;2023-02-01T13:54:36;5.03;;;3.13;;
12846;SDS011;6492;48.128;8.320;2023-02-01T13:58:40;6.13;;;2.80;;
12846;SDS011;6492;48.128;8.320;2023-02-01T14:02:47;6.10;;;2.83;;
12846;SDS011;6492;48.128;8.320;2023-02-01T14:07:20;7.03;;;3.00;;
12846;SDS011;6492;48.128;8.320;2023-02-01T14:11:40;7.13;;;2.97;;
12846;SDS011;6492;48.128;8.320;2023-02-01T14:15:51;6.40;;;3.00;;
12846;SDS011;6492;48.128;8.320;2023-02-01T14:24:55;7.73;;;3.00;;
12846;SDS011;6492;48.128;8.320;2023-02-01T14:29:00;7.63;;;3.70;;
12846;SDS011;6492;48.128;8.320;2023-02-01T14:33:11;8.27;;;3.53;;
12846;SDS011;6492;48.128;8.320;2023-02-01T14:37:25;7.43;;;3.80;;
12846;SDS011;6492;48.128;8.320;2023-02-01T14:41:32;10.73;;;3.17;;
12846;SDS011;6492;48.128;8.320;2023-02-01T14:45:47;5.83;;;2.80;;
12846;SDS011;6492;48.128;8.320;2023-02-01T14:49:53;7.83;;;3.27;;
12846;SDS011;6492;48.128;8.320;2023-02-01T14:53:58;6.70;;;2.80;;
12846;SDS011;6492;48.128;8.320;2023-02-01T14:58:04;9.63;;;3.70;;
12846;SDS011;6492;48.128;8.320;2023-02-01T15:02:15;11.23;;;3.77;;
12846;SDS011;6492;48.128;8.320;2023-02-01T15:06:23;9.63;;;3.63;;
12846;SDS011;6492;48.128;8.320;2023-02-01T15:10:31;9.97;;;3.50;;
12846;SDS011;6492;48.128;8.320;2023-02-01T15:14:36;8.40;;;3.33;;
12846;SDS011;6492;48.128;8.320;2023-02-01T15:18:40;9.17;;;3.17;;
12846;SDS011;6492;48.128;8.320;2023-02-01T15:22:43;8.80;;;3.50;;
12846;SDS011;6492;48.128;8.320;2023-02-01T15:26:54;8.57;;;3.77;;
12846;SDS011;6492;48.128;8.320;2023-02-01T15:30:59;6.13;;;3.63;;
12846;SDS011;6492;48.128;8.320;2023-02-01T15:35:01;8.50;;;3.80;;
12846;SDS011;6492;48.128;8.320;2023-02-01T15:39:14;10.27;;;4.70;;
12846;SDS011;6492;48.128;8.320;2023-02-01T15:43:19;5.60;;;3.20;;
12846;SDS011;6492;48.128;8.320;2023-02-01T15:47:25;8.63;;;3.53;;
12846;SDS011;6492;48.128;8.320;2023-02-01T15:51:31;6.47;;;3.30;;
12846;SDS011;6492;48.128;8.320;2023-02-01T15:55:34;7.33;;;3.10;;
12846;SDS011;6492;48.128;8.320;2023-02-01T15:59:41;7.67;;;3.50;;
12846;SDS011;6492;48.128;8.320;2023-02-01T16:03:47;8.63;;;3.53;;
12846;SDS011;6492;48.128;8.320;2023-02-01T16:07:54;10.80;;;5.00;;
12846;SDS011;6492;48.128;8.320;2023-02-01T16:12:03;9.43;;;4.73;;
12846;SDS011;6492;48.128;8.320;2023-02-01T16:16:20;6.57;;;3.20;;
12846;SDS011;6492;48.128;8.320;2023-02-01T16:20:24;10.03;;;3.27;;
12846;SDS011;6492;48.128;8.320;2023-02-01T16:33:31;8.23;;;3.53;;
12846;SDS011;6492;48.128;8.320;2023-02-01T16:37:44;9.00;;;4.10;;
12846;SDS011;6492;48.128;8.320;2023-02-01T16:41:46;7.87;;;4.17;;
12846;SDS011;6492;48.128;8.320;2023-02-01T16:45:48;10.97;;;3.77;;
12846;SDS011;6492;48.128;8.320;2023-02-01T16:49:51;7.37;;;3.53;;
12846;SDS011;6492;48.128;8.320;2023-02-01T16:58:21;11.00;;;4.40;;
12846;SDS011;6492;48.128;8.320;2023-02-01T17:02:24;13.10;;;3.77;;
12846;SDS011;6492;48.128;8.320;2023-02-01T17:06:34;16.27;;;5.93;;
12846;SDS011;6492;48.128;8.320;2023-02-01T17:15:35;11.43;;;4.50;;
12846;SDS011;6492;48.128;8.320;2023-02-01T17:19:45;6.87;;;3.77;;
12846;SDS011;6492;48.128;8.320;2023-02-01T17:23:51;11.13;;;3.97;;
12846;SDS011;6492;48.128;8.320;2023-02-01T17:27:53;14.20;;;4.47;;
12846;SDS011;6492;48.128;8.320;2023-02-01T17:31:56;13.73;;;5.30;;
12846;SDS011;6492;48.128;8.320;2023-02-01T17:36:00;8.77;;;3.07;;
12846;SDS011;6492;48.128;8.320;2023-02-01T17:40:02;9.63;;;3.47;;
12846;SDS011;6492;48.128;8.320;2023-02-01T17:44:16;8.87;;;4.13;;
12846;SDS011;6492;48.128;8.320;2023-02-01T17:48:19;9.67;;;3.83;;
12846;SDS011;6492;48.128;8.320;2023-02-01T17:52:33;9.73;;;3.90;;
12846;SDS011;6492;48.128;8.320;2023-02-01T17:56:35;12.03;;;3.77;;
12846;SDS011;6492;48.128;8.320;2023-02-01T18:00:46;6.20;;;3.60;;
12846;SDS011;6492;48.128;8.320;2023-02-01T18:04:57;11.00;;;3.83;;
12846;SDS011;6492;48.128;8.320;2023-02-01T18:09:12;7.60;;;3.33;;
12846;SDS011;6492;48.128;8.320;2023-02-01T18:13:14;7.20;;;3.10;;
12846;SDS011;6492;48.128;8.320;2023-02-01T18:17:16;5.63;;;2.63;;
12846;SDS011;6492;48.128;8.320;2023-02-01T18:21:20;9.80;;;3.30;;
12846;SDS011;6492;48.128;8.320;2023-02-01T18:25:24;9.43;;;3.50;;
12846;SDS011;6492;48.128;8.320;2023-02-01T18:29:26;6.53;;;3.20;;
12846;SDS011;6492;48.128;8.320;2023-02-01T18:38:26;6.40;;;3.10;;
12846;SDS011;6492;48.128;8.320;2023-02-01T18:42:28;6.40;;;3.10;;
12846;SDS011;6492;48.128;8.320;2023-02-01T18:46:30;5.13;;;2.40;;
12846;SDS011;6492;48.128;8.320;2023-02-01T18:50:33;6.57;;;2.93;;
12846;SDS011;6492;48.128;8.320;2023-02-01T18:54:37;3.67;;;2.80;;
12846;SDS011;6492;48.128;8.320;2023-02-01T19:03:16;6.50;;;3.00;;
12846;SDS011;6492;48.128;8.320;2023-02-01T19:07:18;9.03;;;3.10;;
12846;SDS011;6492;48.128;8.320;2023-02-01T19:11:29;5.73;;;2.60;;
12846;SDS011;6492;48.128;8.320;2023-02-01T19:15:31;5.70;;;2.63;;
12846;SDS011;6492;48.128;8.320;2023-02-01T19:19:35;7.67;;;3.73;;
12846;SDS011;6492;48.128;8.320;2023-02-01T19:23:41;9.57;;;2.80;;
12846;SDS011;6492;48.128;8.320;2023-02-01T19:27:45;5.60;;;2.90;;
12846;SDS011;6492;48.128;8.320;2023-02-01T19:36:00;6.07;;;3.20;;
12846;SDS011;6492;48.128;8.320;2023-02-01T19:40:05;7.97;;;2.73;;
12846;SDS011;6492;48.128;8.320;2023-02-01T19:44:09;7.67;;;2.70;;
12846;SDS011;6492;48.128;8.320;2023-02-01T19:48:12;9.20;;;3.17;;
12846;SDS011;6492;48.128;8.320;2023-02-01T19:52:14;7.77;;;3.27;;
12846;SDS011;6492;48.128;8.320;2023-02-01T19:56:26;7.17;;;2.93;;
12846;SDS011;6492;48.128;8.320;2023-02-01T20:00:39;4.87;;;2.83;;
12846;SDS011;6492;48.128;8.320;2023-02-01T20:04:41;7.57;;;3.20;;
12846;SDS011;6492;48.128;8.320;2023-02-01T20:08:44;8.37;;;2.90;;
12846;SDS011;6492;48.128;8.320;2023-02-01T20:12:51;7.30;;;2.90;;
12846;SDS011;6492;48.128;8.320;2023-02-01T20:16:55;6.93;;;2.97;;
12846;SDS011;6492;48.128;8.320;2023-02-01T20:20:57;6.57;;;2.93;;
12846;SDS011;6492;48.128;8.320;2023-02-01T20:24:59;6.87;;;3.07;;
12846;SDS011;6492;48.128;8.320;2023-02-01T20:29:03;10.67;;;3.03;;
12846;SDS011;6492;48.128;8.320;2023-02-01T20:33:06;8.23;;;3.50;;
12846;SDS011;6492;48.128;8.320;2023-02-01T20:37:08;5.93;;;3.03;;
12846;SDS011;6492;48.128;8.320;2023-02-01T20:41:10;8.47;;;3.17;;
12846;SDS011;6492;48.128;8.320;2023-02-01T20:45:11;6.83;;;3.77;;
12846;SDS011;6492;48.128;8.320;2023-02-01T20:49:16;8.47;;;3.23;;
12846;SDS011;6492;48.128;8.320;2023-02-01T20:53:25;6.30;;;2.63;;
12846;SDS011;6492;48.128;8.320;2023-02-01T20:57:26;8.63;;;2.67;;
12846;SDS011;6492;48.128;8.320;2023-02-01T21:01:28;6.33;;;2.60;;
12846;SDS011;6492;48.128;8.320;2023-02-01T21:05:32;7.60;;;3.10;;
12846;SDS011;6492;48.128;8.320;2023-02-01T21:09:39;7.87;;;3.03;;
12846;SDS011;6492;48.128;8.320;2023-02-01T21:13:42;6.70;;;2.77;;
12846;SDS011;6492;48.128;8.320;2023-02-01T21:17:49;8.23;;;2.93;;
12846;SDS011;6492;48.128;8.320;2023-02-01T21:26:22;5.90;;;2.53;;
12846;SDS011;6492;48.128;8.320;2023-02-01T21:30:37;8.50;;;2.90;;
12846;SDS011;6492;48.128;8.320;2023-02-01T21:34:39;7.00;;;2.97;;
12846;SDS011;6492;48.128;8.320;2023-02-01T21:38:56;9.13;;;3.07;;
12846;SDS011;6492;48.128;8.320;2023-02-01T21:43:02;8.13;;;2.57;;
12846;SDS011;6492;48.128;8.320;2023-02-01T21:47:04;7.00;;;2.40;;
12846;SDS011;6492;48.128;8.320;2023-02-01T21:51:06;9.40;;;2.60;;
12846;SDS011;6492;48.128;8.320;2023-02-01T21:55:11;7.97;;;3.10;;
12846;SDS011;6492;48.128;8.320;2023-02-01T21:59:14;7.70;;;2.70;;
12846;SDS011;6492;48.128;8.320;2023-02-01T22:03:16;4.03;;;2.30;;
12846;SDS011;6492;48.128;8.320;2023-02-01T22:07:18;10.73;;;3.00;;
12846;SDS011;6492;48.128;8.320;2023-02-01T22:11:21;7.87;;;2.90;;
12846;SDS011;6492;48.128;8.320;2023-02-01T22:15:23;6.73;;;2.77;;
12846;SDS011;6492;48.128;8.320;2023-02-01T22:19:28;5.53;;;3.00;;
12846;SDS011;6492;48.128;8.320;2023-02-01T22:23:29;8.97;;;2.70;;
12846;SDS011;6492;48.128;8.320;2023-02-01T22:27:33;5.10;;;2.50;;
12846;SDS011;6492;48.128;8.320;2023-02-01T22:31:34;6.17;;;2.83;;
12846;SDS011;6492;48.128;8.320;2023-02-01T22:35:36;5.00;;;2.27;;
12846;SDS011;6492;48.128;8.320;2023-02-01T22:39:38;5.73;;;2.40;;
12846;SDS011;6492;48.128;8.320;2023-02-01T22:43:41;5.60;;;2.60;;
12846;SDS011;6492;48.128;8.320;2023-02-01T22:47:43;4.80;;;2.30;;
12846;SDS011;6492;48.128;8.320;2023-02-01T22:51:45;5.90;;;2.37;;
12846;SDS011;6492;48.128;8.320;2023-02-01T22:55:49;4.63;;;2.30;;
12846;SDS011;6492;48.128;8.320;2023-02-01T22:59:52;6.07;;;2.50;;
12846;SDS011;6492;48.128;8.320;2023-02-01T23:03:55;8.77;;;2.80;;
12846;SDS011;6492;48.128;8.320;2023-02-01T23:07:57;7.07;;;2.40;;
12846;SDS011;6492;48.128;8.320;2023-02-01T23:11:59;9.63;;;3.23;;
12846;SDS011;6492;48.128;8.320;2023-02-01T23:16:04;7.83;;;2.50;;
12846;SDS011;6492;48.128;8.320;2023-02-01T23:20:07;10.07;;;2.73;;
12846;SDS011;6492;48.128;8.320;2023-02-01T23:24:13;6.90;;;3.00;;
12846;SDS011;6492;48.128;8.320;2023-02-01T23:28:15;6.10;;;2.40;;
12846;SDS011;6492;48.128;8.320;2023-02-01T23:32:18;7.07;;;3.00;;
12846;SDS011;6492;48.128;8.320;2023-02-01T23:36:20;5.77;;;2.80;;
12846;SDS011;6492;48.128;8.320;2023-02-01T23:40:23;5.63;;;2.83;;
12846;SDS011;6492;48.128;8.320;2023-02-01T23:44:25;6.23;;;3.27;;
12846;SDS011;6492;48.128;8.320;2023-02-01T23:48:28;8.50;;;3.33;;
12846;SDS011;6492;48.128;8.320;2023-02-01T23:52:30;2.97;;;2.37;;
12846;SDS011;6492;48.128;8.320;2023-02-01T23:56:32;4.93;;;2.57;;
